Time;durP1;ratioP1;P1;durP2;ratioP2;P2;SDS_P1;SDS_P2;PMS_P1;PMS_P2;Temp;Humidity;BMP_temperature;BMP_pressure;BME280_temperature;BME280_humidity;BME280_pressure;Samples;Min_cycle;Max_cycle;Signal;HPM_P1;HPM_P2
2022/12/09 00:01:37;;;;;;;11.60;5.90;;;-0.20;83.40;;;;;;5030638;28;20182;-72
2022/12/09 00:04:03;;;;;;;12.10;5.70;;;-0.20;83.10;;;;;;5027595;28;20218;-74
2022/12/09 00:06:29;;;;;;;9.80;5.33;;;-0.20;83.00;;;;;;5019757;28;20676;-72
2022/12/09 00:08:56;;;;;;;8.45;4.90;;;-0.30;83.10;;;;;;5025381;28;20213;-75
2022/12/09 00:11:22;;;;;;;9.50;5.07;;;-0.30;83.30;;;;;;5019926;28;20211;-72
2022/12/09 00:13:55;;;;;;;7.82;4.70;;;-0.40;83.10;;;;;;5025275;28;20231;-74
2022/12/09 00:16:22;;;;;;;7.55;4.10;;;-0.30;83.40;;;;;;5027094;28;20675;-72
2022/12/09 00:18:48;;;;;;;8.98;4.93;;;-0.30;82.80;;;;;;5024866;28;20259;-74
2022/12/09 00:21:43;;;;;;;17.83;9.67;;;-0.30;82.40;;;;;;5026460;28;20201;-74
2022/12/09 00:24:11;;;;;;;20.42;8.88;;;-0.40;82.50;;;;;;4982743;28;20460;-73
2022/12/09 00:26:38;;;;;;;17.17;8.90;;;-0.40;83.80;;;;;;4973603;28;20740;-75
2022/12/09 00:29:06;;;;;;;23.52;11.32;;;-0.40;84.90;;;;;;4985954;28;20265;-75
2022/12/09 00:31:53;;;;;;;19.92;10.68;;;-0.40;85.50;;;;;;4972225;28;20334;-75
2022/12/09 00:34:21;;;;;;;21.55;9.80;;;-0.40;86.00;;;;;;4990789;28;20638;-75
2022/12/09 00:36:46;;;;;;;16.20;9.85;;;-0.50;86.50;;;;;;4983768;28;20663;-75
2022/12/09 00:39:12;;;;;;;15.70;10.40;;;-0.50;86.90;;;;;;4986913;28;20224;-72
2022/12/09 00:41:38;;;;;;;23.47;10.60;;;-0.50;87.00;;;;;;4982663;28;20290;-74
2022/12/09 00:44:04;;;;;;;19.10;10.07;;;-0.60;87.10;;;;;;4986771;28;20649;-72
2022/12/09 00:46:29;;;;;;;16.13;7.97;;;-0.60;87.30;;;;;;4984707;28;20273;-73
2022/12/09 00:48:55;;;;;;;16.20;9.40;;;-0.60;87.10;;;;;;4989929;28;20325;-73
2022/12/09 00:51:22;;;;;;;18.57;9.20;;;-0.60;87.00;;;;;;4983348;28;20266;-75
2022/12/09 00:53:53;;;;;;;19.98;10.02;;;-0.60;87.30;;;;;;4990437;28;20465;-72
2022/12/09 00:56:19;;;;;;;27.40;10.55;;;-0.60;87.40;;;;;;4990594;28;20217;-72
2022/12/09 00:58:45;;;;;;;17.15;9.15;;;-0.50;87.40;;;;;;4989040;28;20218;-74
2022/12/09 01:01:10;;;;;;;18.87;9.63;;;-0.60;87.30;;;;;;5011240;28;20283;-73
2022/12/09 01:03:37;;;;;;;17.10;10.17;;;-0.60;87.40;;;;;;5020365;28;20211;-72
2022/12/09 01:06:08;;;;;;;20.98;9.50;;;-0.50;87.60;;;;;;5026349;28;20255;-74
2022/12/09 01:08:33;;;;;;;20.42;10.43;;;-0.60;87.30;;;;;;5028211;28;20303;-72
2022/12/09 01:10:59;;;;;;;17.50;10.50;;;-0.70;87.40;;;;;;5022803;28;20212;-72
2022/12/09 01:13:25;;;;;;;20.03;10.20;;;-0.80;87.60;;;;;;5030220;28;20196;-74
2022/12/09 01:15:50;;;;;;;23.47;11.17;;;-0.80;87.80;;;;;;5032312;28;20178;-72
2022/12/09 01:18:16;;;;;;;20.73;10.20;;;-0.80;87.80;;;;;;5030372;28;20192;-73
2022/12/09 01:20:41;;;;;;;18.70;10.00;;;-0.80;88.00;;;;;;5019778;28;20197;-74
2022/12/09 01:23:07;;;;;;;14.40;9.17;;;-0.70;88.10;;;;;;5028202;28;20247;-74
2022/12/09 01:25:33;;;;;;;17.57;10.80;;;-0.70;87.80;;;;;;5027967;28;20182;-73
2022/12/09 01:27:58;;;;;;;18.73;10.07;;;-0.70;87.60;;;;;;5025054;28;20204;-76
2022/12/09 01:30:24;;;;;;;14.50;7.97;;;-0.80;87.60;;;;;;5028748;28;20287;-75
2022/12/09 01:32:49;;;;;;;17.43;8.77;;;-0.80;87.60;;;;;;5022755;28;20215;-72
2022/12/09 01:35:15;;;;;;;13.40;7.90;;;-0.80;87.30;;;;;;5023362;28;20181;-75
2022/12/09 01:37:41;;;;;;;23.87;8.57;;;-0.80;87.00;;;;;;5028062;28;20448;-76
2022/12/09 01:40:10;;;;;;;14.57;7.53;;;-0.80;87.00;;;;;;5028782;28;20216;-74
2022/12/09 01:42:35;;;;;;;13.13;7.45;;;-0.80;86.80;;;;;;5032953;28;20181;-76
2022/12/09 01:45:22;;;;;;;16.43;6.67;;;-0.80;86.60;;;;;;5032813;28;20181;-73
2022/12/09 01:47:55;;;;;;;15.32;7.03;;;-0.70;86.50;;;;;;5029829;28;20208;-74
2022/12/09 01:50:22;;;;;;;12.30;6.32;;;-0.70;86.20;;;;;;5029941;28;20210;-72
2022/12/09 01:52:49;;;;;;;13.00;6.90;;;-0.80;85.60;;;;;;5033036;28;20224;-74
2022/12/09 01:55:15;;;;;;;10.48;6.53;;;-0.80;85.60;;;;;;5027201;28;20186;-75
2022/12/09 01:57:42;;;;;;;8.30;5.18;;;-0.90;85.60;;;;;;5024748;28;20269;-73
2022/12/09 02:00:09;;;;;;;10.05;5.70;;;-0.90;85.60;;;;;;5024434;28;20205;-73
2022/12/09 02:02:36;;;;;;;8.88;5.22;;;-0.90;85.30;;;;;;5023055;28;20224;-73
2022/12/09 02:05:03;;;;;;;7.85;5.05;;;-0.90;85.20;;;;;;5025248;28;20373;-73
2022/12/09 02:07:29;;;;;;;10.15;5.53;;;-0.90;85.30;;;;;;5028262;28;20657;-72
2022/12/09 02:09:55;;;;;;;9.90;5.75;;;-1.00;85.30;;;;;;5028045;28;20714;-73
2022/12/09 02:12:29;;;;;;;7.90;5.50;;;-1.00;85.30;;;;;;5029468;28;20622;-73
2022/12/09 02:15:05;;;;;;;7.55;5.28;;;-1.00;85.50;;;;;;5030846;28;20193;-71
2022/12/09 02:17:52;;;;;;;16.08;6.60;;;-0.90;85.50;;;;;;5026492;28;20182;-72
2022/12/09 02:20:36;;;;;;;11.13;6.32;;;-0.90;85.00;;;;;;5031765;28;20213;-74
2022/12/09 02:23:19;;;;;;;10.55;6.18;;;-0.90;84.40;;;;;;5028325;28;20268;-75
2022/12/09 02:25:50;;;;;;;9.75;5.20;;;-0.90;84.30;;;;;;5031967;28;20185;-71
2022/12/09 02:28:47;;;;;;;15.35;8.13;;;-1.00;84.30;;;;;;5025347;28;20205;-74
2022/12/09 02:32:01;;;;;;;16.30;9.10;;;-1.00;84.40;;;;;;5026881;28;20192;-74
2022/12/09 02:34:30;;;;;;;14.80;9.00;;;-1.00;85.90;;;;;;5027913;28;20181;-72
2022/12/09 02:37:09;;;;;;;14.52;8.30;;;-1.00;86.30;;;;;;5032262;28;20212;-75
2022/12/09 02:39:42;;;;;;;16.58;9.32;;;-1.00;86.50;;;;;;5030466;28;20288;-73
2022/12/09 02:42:12;;;;;;;16.42;9.82;;;-1.00;86.90;;;;;;5034688;28;20554;-71
2022/12/09 02:44:39;;;;;;;18.73;9.38;;;-1.00;87.10;;;;;;5030095;28;20186;-74
2022/12/09 02:47:08;;;;;;;14.52;9.10;;;-1.10;87.30;;;;;;5028638;28;20182;-72
2022/12/09 02:49:35;;;;;;;13.15;8.43;;;-1.20;87.40;;;;;;5029717;28;20213;-74
2022/12/09 02:52:03;;;;;;;15.98;8.70;;;-1.20;87.70;;;;;;5035032;28;20197;-73
2022/12/09 02:54:31;;;;;;;16.55;9.18;;;-1.20;88.00;;;;;;5033417;28;20190;-74
2022/12/09 02:57:04;;;;;;;22.58;9.20;;;-1.20;88.00;;;;;;5037202;28;20232;-74
2022/12/09 02:59:32;;;;;;;17.23;8.88;;;-1.30;88.00;;;;;;5033017;28;20212;-72
2022/12/09 03:02:10;;;;;;;17.98;9.18;;;-1.30;88.10;;;;;;5028456;28;20215;-73
2022/12/09 03:04:39;;;;;;;14.82;8.73;;;-1.30;88.30;;;;;;5019489;28;20177;-74
2022/12/09 03:07:27;;;;;;;18.42;8.73;;;-1.30;88.30;;;;;;5024411;28;20189;-74
2022/12/09 03:10:04;;;;;;;17.70;9.43;;;-1.40;88.40;;;;;;5021610;28;20209;-71
2022/12/09 03:12:33;;;;;;;14.98;8.23;;;-1.30;88.60;;;;;;5021914;28;20195;-72
2022/12/09 03:15:02;;;;;;;16.00;9.52;;;-1.30;88.30;;;;;;5028084;28;20611;-73
2022/12/09 03:17:34;;;;;;;18.98;9.13;;;-1.30;88.30;;;;;;5021564;28;20188;-74
2022/12/09 03:20:03;;;;;;;14.43;7.60;;;-1.50;88.40;;;;;;5021510;28;20589;-72
2022/12/09 03:22:32;;;;;;;12.57;7.68;;;-1.40;88.60;;;;;;5022825;28;21005;-74
2022/12/09 03:25:01;;;;;;;14.23;6.63;;;-1.40;88.90;;;;;;5032158;28;20316;-73
2022/12/09 03:27:59;;;;;;;12.80;6.80;;;-1.30;89.00;;;;;;5022051;28;20193;-74
2022/12/09 03:30:25;;;;;;;12.88;7.38;;;-1.20;88.70;;;;;;5003380;28;20228;-72
2022/12/09 03:32:53;;;;;;;10.50;6.20;;;-1.20;88.10;;;;;;5017731;28;20182;-74
2022/12/09 03:35:28;;;;;;;13.15;7.00;;;-1.20;87.70;;;;;;5026909;28;20188;-71
2022/12/09 03:37:55;;;;;;;14.95;8.70;;;-1.20;87.30;;;;;;5019961;28;20284;-73
2022/12/09 03:40:27;;;;;;;15.82;7.55;;;-1.20;87.00;;;;;;5024148;28;20271;-71
2022/12/09 03:43:00;;;;;;;14.82;7.78;;;-1.20;86.90;;;;;;5030269;28;20181;-72
2022/12/09 03:45:26;;;;;;;13.05;7.50;;;-1.20;86.80;;;;;;5025407;28;20189;-73
2022/12/09 03:47:52;;;;;;;14.97;8.50;;;-1.20;86.60;;;;;;5030039;28;20557;-75
2022/12/09 03:50:24;;;;;;;12.00;7.15;;;-1.30;86.60;;;;;;5022382;28;20460;-73
2022/12/09 03:53:03;;;;;;;13.52;7.70;;;-1.30;86.90;;;;;;5023661;28;20221;-74
2022/12/09 03:55:56;;;;;;;15.13;8.00;;;-1.30;87.10;;;;;;5022511;28;20181;-74
2022/12/09 03:58:23;;;;;;;17.13;9.50;;;-1.30;87.00;;;;;;5022938;28;20280;-70
2022/12/09 04:00:49;;;;;;;13.73;8.55;;;-1.30;87.00;;;;;;5026865;28;20185;-72
2022/12/09 04:03:16;;;;;;;17.00;9.30;;;-1.30;87.00;;;;;;5025374;28;20197;-71
2022/12/09 04:05:42;;;;;;;19.45;9.88;;;-1.30;87.30;;;;;;5021630;28;20424;-70
2022/12/09 04:08:08;;;;;;;17.63;9.00;;;-1.30;87.60;;;;;;5023405;28;20205;-74
2022/12/09 04:10:34;;;;;;;16.05;9.35;;;-1.30;87.60;;;;;;5027515;28;20761;-73
2022/12/09 04:13:00;;;;;;;15.37;8.70;;;-1.20;87.60;;;;;;5025929;28;20184;-73
2022/12/09 04:15:25;;;;;;;17.43;9.10;;;-1.20;87.60;;;;;;5025140;28;20270;-73
2022/12/09 04:17:51;;;;;;;16.63;8.87;;;-1.30;87.60;;;;;;5028976;28;20280;-72
2022/12/09 04:20:16;;;;;;;17.43;8.70;;;-1.20;87.70;;;;;;5021808;28;20221;-72
2022/12/09 04:22:42;;;;;;;19.10;9.40;;;-1.20;87.70;;;;;;5026353;28;20631;-73
2022/12/09 04:25:08;;;;;;;15.67;8.43;;;-1.20;87.70;;;;;;5028565;28;20292;-71
2022/12/09 04:27:33;;;;;;;16.05;9.85;;;-1.20;87.40;;;;;;5024323;28;20548;-70
2022/12/09 04:29:59;;;;;;;16.07;9.43;;;-1.20;87.30;;;;;;5022871;28;20683;-74
2022/12/09 04:32:25;;;;;;;18.17;10.20;;;-1.20;87.40;;;;;;5023311;28;20573;-73
2022/12/09 04:34:50;;;;;;;14.67;8.40;;;-1.20;87.60;;;;;;5025222;28;20215;-74
2022/12/09 04:37:16;;;;;;;17.73;9.73;;;-1.30;87.60;;;;;;5022034;28;20268;-75
2022/12/09 04:39:42;;;;;;;16.50;9.07;;;-1.30;87.70;;;;;;5017764;28;20216;-75
2022/12/09 04:42:07;;;;;;;13.97;8.30;;;-1.30;88.00;;;;;;5021640;28;20660;-72
2022/12/09 04:44:33;;;;;;;16.37;8.90;;;-1.30;88.00;;;;;;5037879;28;20182;-72
2022/12/09 04:46:59;;;;;;;15.60;8.47;;;-1.30;87.80;;;;;;5020132;28;20429;-75
2022/12/09 04:49:24;;;;;;;16.53;8.43;;;-1.30;88.00;;;;;;5023603;28;20225;-73
2022/12/09 04:51:50;;;;;;;14.13;9.00;;;-1.20;88.00;;;;;;5016965;28;20194;-72
2022/12/09 04:54:15;;;;;;;13.30;7.90;;;-1.30;87.80;;;;;;5026431;28;20597;-72
2022/12/09 04:56:42;;;;;;;14.33;7.30;;;-1.20;88.10;;;;;;5017322;28;20857;-71
2022/12/09 04:59:08;;;;;;;16.08;8.13;;;-1.10;88.10;;;;;;5021371;28;20210;-74
2022/12/09 05:01:34;;;;;;;19.90;9.53;;;-1.00;87.70;;;;;;5021274;28;20763;-75
2022/12/09 05:03:59;;;;;;;16.47;8.40;;;-1.00;87.40;;;;;;5024609;28;20212;-73
2022/12/09 05:06:25;;;;;;;17.43;8.60;;;-1.00;87.30;;;;;;5021394;28;20200;-72
2022/12/09 05:08:51;;;;;;;15.43;8.57;;;-1.00;87.10;;;;;;5025114;28;20225;-73
2022/12/09 05:11:18;;;;;;;16.77;8.60;;;-1.10;86.80;;;;;;5021503;28;20792;-73
2022/12/09 05:13:44;;;;;;;17.25;9.70;;;-1.00;86.90;;;;;;5023075;28;20181;-74
2022/12/09 05:16:12;;;;;;;18.73;10.10;;;-1.00;86.80;;;;;;5020069;28;20193;-73
2022/12/09 05:18:38;;;;;;;21.23;10.65;;;-1.00;86.60;;;;;;5026279;28;20232;-73
2022/12/09 05:21:08;;;;;;;16.57;8.93;;;-1.10;86.80;;;;;;5027823;28;20236;-74
2022/12/09 05:23:34;;;;;;;19.10;9.10;;;-1.10;87.30;;;;;;5017882;28;20186;-74
2022/12/09 05:26:05;;;;;;;16.67;9.60;;;-1.10;87.70;;;;;;5029301;28;20559;-72
2022/12/09 05:28:32;;;;;;;18.40;8.93;;;-1.00;87.80;;;;;;5020812;28;20513;-71
2022/12/09 05:30:59;;;;;;;16.05;9.52;;;-1.00;87.80;;;;;;5017630;28;20178;-75
2022/12/09 05:33:25;;;;;;;13.68;8.63;;;-1.00;87.80;;;;;;5023107;28;20189;-74
2022/12/09 05:35:50;;;;;;;20.00;10.90;;;-1.10;87.80;;;;;;5023779;28;20178;-74
2022/12/09 05:38:16;;;;;;;17.67;9.80;;;-1.00;88.00;;;;;;5026824;28;20209;-74
2022/12/09 05:40:41;;;;;;;22.43;10.33;;;-1.00;88.00;;;;;;5026100;28;20202;-73
2022/12/09 05:43:07;;;;;;;16.77;9.63;;;-0.90;88.00;;;;;;5024678;28;20562;-73
2022/12/09 05:45:33;;;;;;;19.10;10.20;;;-0.80;87.70;;;;;;5027183;28;20193;-74
2022/12/09 05:47:58;;;;;;;15.70;9.03;;;-0.80;87.60;;;;;;5034131;28;20270;-72
2022/12/09 05:50:24;;;;;;;19.27;10.30;;;-0.80;87.10;;;;;;5025703;28;20217;-72
2022/12/09 05:52:49;;;;;;;21.07;10.87;;;-0.80;86.60;;;;;;5022483;28;20198;-75
2022/12/09 05:55:15;;;;;;;21.03;10.80;;;-0.80;86.60;;;;;;5026054;28;20185;-73
2022/12/09 05:57:41;;;;;;;18.30;10.17;;;-0.90;86.80;;;;;;5023446;28;20186;-73
2022/12/09 06:00:07;;;;;;;15.57;9.27;;;-1.00;87.10;;;;;;5025613;28;20254;-73
2022/12/09 06:02:32;;;;;;;18.67;10.35;;;-1.00;87.40;;;;;;5029287;28;20193;-73
2022/12/09 06:04:58;;;;;;;18.97;10.50;;;-0.90;87.60;;;;;;5030167;28;20564;-73
2022/12/09 06:07:24;;;;;;;17.80;10.33;;;-0.90;87.40;;;;;;5033416;28;20177;-72
2022/12/09 06:09:49;;;;;;;16.40;9.53;;;-0.90;87.40;;;;;;5028289;28;20220;-73
2022/12/09 06:12:15;;;;;;;19.43;11.20;;;-0.90;87.40;;;;;;5021452;28;20189;-73
2022/12/09 06:14:40;;;;;;;20.40;10.70;;;-0.90;87.10;;;;;;5029965;28;20181;-73
2022/12/09 06:17:06;;;;;;;20.17;11.57;;;-0.90;87.10;;;;;;5027256;28;20186;-72
2022/12/09 06:19:32;;;;;;;22.93;11.13;;;-0.90;87.10;;;;;;5025609;28;20209;-73
2022/12/09 06:21:57;;;;;;;23.23;9.83;;;-1.00;87.40;;;;;;5027483;28;20271;-74
2022/12/09 06:24:23;;;;;;;20.37;10.77;;;-0.90;87.40;;;;;;5026218;28;20189;-73
2022/12/09 06:26:52;;;;;;;20.37;11.20;;;-1.10;87.40;;;;;;5028823;28;20260;-74
2022/12/09 06:29:18;;;;;;;17.30;9.55;;;-1.00;87.60;;;;;;5023602;28;20217;-72
2022/12/09 06:31:43;;;;;;;20.60;11.60;;;-1.00;87.70;;;;;;5023201;28;20188;-72
2022/12/09 06:34:09;;;;;;;17.80;11.23;;;-1.00;87.70;;;;;;5024384;28;20268;-73
2022/12/09 06:36:35;;;;;;;24.17;11.53;;;-0.90;87.70;;;;;;5023174;28;20212;-74
2022/12/09 06:39:03;;;;;;;18.00;10.40;;;-0.90;87.70;;;;;;5022848;28;20209;-72
2022/12/09 06:41:28;;;;;;;18.55;10.27;;;-1.00;87.80;;;;;;5026291;28;20189;-74
2022/12/09 06:43:58;;;;;;;27.33;13.35;;;-0.90;88.30;;;;;;5026947;28;20295;-74
2022/12/09 06:46:26;;;;;;;19.33;9.88;;;-0.80;88.30;;;;;;5020271;28;20181;-72
2022/12/09 06:48:52;;;;;;;21.05;10.30;;;-0.80;88.30;;;;;;5027578;28;20244;-74
2022/12/09 06:51:18;;;;;;;18.77;9.60;;;-0.70;87.60;;;;;;5028380;28;20186;-71
2022/12/09 06:53:45;;;;;;;22.00;10.93;;;-0.70;87.10;;;;;;5026772;28;20201;-72
2022/12/09 06:56:11;;;;;;;21.55;11.43;;;-0.70;86.80;;;;;;5027961;28;20445;-72
2022/12/09 06:58:37;;;;;;;20.17;10.48;;;-0.70;86.80;;;;;;5019619;28;20233;-71
2022/12/09 07:01:14;;;;;;;19.30;9.60;;;-0.70;86.90;;;;;;5027594;28;20218;-71
2022/12/09 07:03:44;;;;;;;21.20;11.38;;;-0.80;87.00;;;;;;5031809;28;20205;-73
2022/12/09 07:06:16;;;;;;;20.08;11.32;;;-0.80;87.30;;;;;;5026002;28;20190;-70
2022/12/09 07:08:42;;;;;;;19.27;10.00;;;-0.80;87.30;;;;;;5019972;28;20249;-73
2022/12/09 07:11:07;;;;;;;25.83;12.00;;;-0.80;87.40;;;;;;5026653;28;20189;-73
2022/12/09 07:13:33;;;;;;;20.37;10.30;;;-0.70;87.60;;;;;;5021523;28;20220;-71
2022/12/09 07:15:58;;;;;;;22.93;10.77;;;-0.70;87.60;;;;;;5024496;28;20213;-74
2022/12/09 07:18:24;;;;;;;17.50;9.93;;;-0.60;87.40;;;;;;5034050;28;20236;-74
2022/12/09 07:20:49;;;;;;;24.40;12.00;;;-0.70;87.30;;;;;;5028580;28;20222;-73
2022/12/09 07:23:15;;;;;;;24.13;11.60;;;-0.60;87.40;;;;;;5031311;28;20221;-72
2022/12/09 07:25:40;;;;;;;20.17;10.17;;;-0.70;87.40;;;;;;5034739;28;20185;-72
2022/12/09 07:28:06;;;;;;;20.50;10.80;;;-0.70;87.60;;;;;;5024277;28;20857;-73
2022/12/09 07:30:31;;;;;;;19.23;12.13;;;-0.50;87.80;;;;;;5028245;28;20213;-74
2022/12/09 07:32:57;;;;;;;24.10;12.20;;;-0.30;87.70;;;;;;5027784;28;20304;-74
2022/12/09 07:35:23;;;;;;;21.73;11.37;;;-0.20;87.00;;;;;;5024393;28;20579;-72
2022/12/09 07:37:48;;;;;;;17.23;11.13;;;-0.30;86.50;;;;;;5029189;28;20227;-73
2022/12/09 07:40:14;;;;;;;25.07;12.27;;;-0.30;86.30;;;;;;5019812;28;20206;-75
2022/12/09 07:42:39;;;;;;;24.97;12.10;;;-0.20;86.80;;;;;;5034194;28;20181;-74
2022/12/09 07:45:06;;;;;;;29.83;12.00;;;-0.10;86.80;;;;;;5033177;28;20252;-72
2022/12/09 07:47:34;;;;;;;25.70;12.55;;;0.10;86.80;;;;;;5034642;28;20185;-75
2022/12/09 07:50:00;;;;;;;22.05;11.55;;;0.10;86.30;;;;;;5024898;28;20214;-72
2022/12/09 07:52:26;;;;;;;31.83;12.63;;;0.10;85.90;;;;;;5026502;28;20287;-74
2022/12/09 07:54:53;;;;;;;23.80;11.15;;;0.00;85.30;;;;;;5021526;28;20205;-74
2022/12/09 07:57:19;;;;;;;21.10;11.05;;;0.10;85.50;;;;;;5029756;28;20185;-74
2022/12/09 07:59:44;;;;;;;23.53;12.50;;;0.30;85.60;;;;;;5018310;28;20209;-72
2022/12/09 08:02:13;;;;;;;25.43;12.57;;;0.40;85.30;;;;;;5026887;28;20263;-75
2022/12/09 08:04:38;;;;;;;22.92;12.27;;;0.40;84.90;;;;;;5023145;28;20185;-73
2022/12/09 08:07:04;;;;;;;20.60;11.33;;;0.50;84.70;;;;;;5016593;28;20189;-71
2022/12/09 08:09:32;;;;;;;37.13;14.20;;;0.70;84.70;;;;;;5019181;28;20209;-74
2022/12/09 08:11:58;;;;;;;26.13;11.40;;;0.70;84.10;;;;;;5026764;28;20246;-75
2022/12/09 08:14:24;;;;;;;29.50;12.33;;;0.60;83.80;;;;;;5028956;28;20254;-73
2022/12/09 08:16:49;;;;;;;21.83;11.33;;;0.50;83.10;;;;;;5029175;28;20200;-73
2022/12/09 08:19:15;;;;;;;23.20;12.27;;;0.40;83.30;;;;;;5027770;28;20227;-72
2022/12/09 08:21:41;;;;;;;27.50;12.23;;;0.40;83.70;;;;;;5029666;28;20240;-71
2022/12/09 08:24:07;;;;;;;24.97;12.33;;;0.40;83.60;;;;;;5032995;28;20636;-73
2022/12/09 08:26:33;;;;;;;22.20;11.73;;;0.40;83.40;;;;;;5025252;28;20540;-73
2022/12/09 08:28:59;;;;;;;18.88;12.02;;;0.30;83.30;;;;;;5034820;28;20472;-72
2022/12/09 08:31:25;;;;;;;27.17;12.25;;;0.30;83.30;;;;;;5032367;28;20196;-73
2022/12/09 08:33:52;;;;;;;26.23;12.50;;;0.30;83.30;;;;;;5027415;28;20264;-71
2022/12/09 08:36:20;;;;;;;25.73;12.25;;;0.30;83.70;;;;;;5022519;28;20177;-70
2022/12/09 08:38:46;;;;;;;24.05;12.60;;;0.40;83.80;;;;;;5025454;28;20208;-71
2022/12/09 08:41:19;;;;;;;27.27;13.48;;;0.50;83.70;;;;;;5023686;28;20193;-73
2022/12/09 08:43:46;;;;;;;30.90;12.98;;;0.50;83.30;;;;;;5032485;28;20177;-74
2022/12/09 08:46:12;;;;;;;23.25;12.30;;;0.50;82.80;;;;;;5024845;28;21105;-73
2022/12/09 08:48:39;;;;;;;24.90;13.27;;;0.50;83.10;;;;;;5024006;28;20252;-74
2022/12/09 08:51:06;;;;;;;23.67;12.10;;;0.50;83.10;;;;;;5018476;28;20665;-76
2022/12/09 08:53:32;;;;;;;26.33;11.85;;;0.50;83.30;;;;;;5020128;28;20945;-73
2022/12/09 08:55:58;;;;;;;29.10;13.90;;;0.70;83.10;;;;;;5022366;28;20185;-75
2022/12/09 08:58:23;;;;;;;25.67;12.93;;;0.80;82.80;;;;;;5022397;28;20197;-72
2022/12/09 09:00:49;;;;;;;27.17;13.53;;;0.90;82.70;;;;;;5029674;28;20212;-73
2022/12/09 09:03:15;;;;;;;22.47;13.07;;;0.80;81.70;;;;;;5018265;28;20200;-73
2022/12/09 09:05:40;;;;;;;25.97;13.53;;;0.70;81.80;;;;;;5030928;28;20519;-73
2022/12/09 09:08:06;;;;;;;23.53;13.10;;;0.60;81.80;;;;;;5021171;28;20209;-73
2022/12/09 09:10:31;;;;;;;22.30;12.40;;;0.50;82.10;;;;;;5026484;28;20959;-72
2022/12/09 09:12:57;;;;;;;23.70;12.70;;;0.40;82.20;;;;;;5020669;28;20206;-74
2022/12/09 09:15:23;;;;;;;27.87;13.77;;;0.20;82.70;;;;;;5027675;28;20581;-73
2022/12/09 09:17:50;;;;;;;24.10;13.30;;;0.30;83.40;;;;;;5020663;28;20264;-74
2022/12/09 09:20:16;;;;;;;23.83;12.50;;;0.30;83.40;;;;;;5024829;28;20205;-72
2022/12/09 09:22:42;;;;;;;30.73;14.07;;;0.20;83.40;;;;;;5017819;28;20879;-73
2022/12/09 09:25:08;;;;;;;25.70;13.00;;;0.40;84.00;;;;;;5031459;28;20347;-74
2022/12/09 09:27:34;;;;;;;20.35;11.77;;;0.40;83.00;;;;;;5022323;28;20733;-74
2022/12/09 09:29:59;;;;;;;30.13;13.65;;;0.50;82.80;;;;;;5026278;28;20382;-73
2022/12/09 09:32:25;;;;;;;32.03;15.40;;;0.60;82.80;;;;;;5020677;28;20224;-73
2022/12/09 09:34:51;;;;;;;26.17;14.20;;;0.60;82.10;;;;;;5025433;28;20181;-72
2022/12/09 09:37:17;;;;;;;29.75;14.40;;;0.60;81.90;;;;;;5022707;28;20186;-74
2022/12/09 09:39:42;;;;;;;31.67;13.80;;;0.60;82.20;;;;;;5024690;28;20216;-72
2022/12/09 09:42:16;;;;;;;25.80;14.20;;;0.80;82.50;;;;;;5022034;28;20185;-72
2022/12/09 09:44:43;;;;;;;26.42;13.02;;;1.00;82.20;;;;;;5030165;28;20620;-73
2022/12/09 09:47:32;;;;;;;31.92;14.02;;;1.10;81.40;;;;;;5026310;28;20258;-75
2022/12/09 09:50:23;;;;;;;28.63;13.13;;;1.10;80.60;;;;;;5021086;28;20629;-73
2022/12/09 09:52:51;;;;;;;26.67;12.93;;;1.20;80.30;;;;;;5023579;28;20197;-72
2022/12/09 09:55:21;;;;;;;24.42;13.80;;;1.20;80.00;;;;;;5021964;28;20350;-74
2022/12/09 09:57:56;;;;;;;27.27;14.18;;;1.00;80.20;;;;;;5024076;28;20273;-73
2022/12/09 10:00:42;;;;;;;26.52;14.45;;;1.00;80.30;;;;;;5022990;28;20240;-74
2022/12/09 10:03:18;;;;;;;28.10;14.98;;;1.10;81.10;;;;;;5026526;28;20194;-74
2022/12/09 10:05:53;;;;;;;31.45;15.30;;;1.00;81.10;;;;;;5027235;28;20173;-74
2022/12/09 10:08:55;;;;;;;28.67;15.15;;;0.90;81.20;;;;;;5024891;28;20637;-73
2022/12/09 10:11:36;;;;;;;29.33;14.82;;;0.90;81.70;;;;;;5024165;28;20189;-72
2022/12/09 10:14:04;;;;;;;34.92;16.10;;;0.90;81.70;;;;;;5019411;28;20556;-73
2022/12/09 10:16:41;;;;;;;27.50;14.95;;;0.80;82.40;;;;;;5032616;28;20744;-71
2022/12/09 10:19:17;;;;;;;29.33;15.82;;;0.90;82.50;;;;;;5023230;28;20251;-72
2022/12/09 10:21:45;;;;;;;32.30;15.18;;;0.90;81.90;;;;;;5021151;28;20213;-73
2022/12/09 10:24:18;;;;;;;34.80;16.02;;;1.00;82.10;;;;;;5025093;28;20510;-71
2022/12/09 10:27:14;;;;;;;25.50;14.25;;;1.10;81.70;;;;;;5024210;28;20185;-74
2022/12/09 10:30:05;;;;;;;25.55;14.15;;;1.30;81.50;;;;;;5021696;28;20250;-74
2022/12/09 10:32:34;;;;;;;37.45;16.85;;;1.40;80.30;;;;;;5024262;28;20200;-73
2022/12/09 10:35:00;;;;;;;34.15;16.85;;;1.10;80.60;;;;;;5030407;28;20755;-73
2022/12/09 10:37:27;;;;;;;33.03;16.23;;;1.00;81.40;;;;;;5023913;28;20632;-72
2022/12/09 10:40:08;;;;;;;30.85;15.70;;;0.90;81.90;;;;;;5024060;28;20209;-74
2022/12/09 10:45:30;;;;;;;37.88;15.60;;;0.90;83.00;;;;;;5024984;28;20220;-73
2022/12/09 10:47:56;;;;;;;33.70;16.10;;;1.00;82.40;;;;;;5027407;28;20186;-73
2022/12/09 10:50:34;;;;;;;31.63;15.67;;;1.00;82.10;;;;;;5023706;28;20688;-74
2022/12/09 10:53:10;;;;;;;31.77;16.60;;;1.00;82.10;;;;;;5019929;28;20444;-73
2022/12/09 10:55:39;;;;;;;27.48;15.68;;;1.10;82.20;;;;;;5023687;28;20280;-72
2022/12/09 10:58:09;;;;;;;30.38;14.65;;;1.20;82.10;;;;;;5024149;28;20189;-72
2022/12/09 11:00:35;;;;;;;27.80;14.25;;;1.40;81.90;;;;;;5024697;28;20212;-73
2022/12/09 11:03:00;;;;;;;30.57;15.80;;;1.50;81.10;;;;;;5022916;28;20205;-72
2022/12/09 11:05:34;;;;;;;32.03;15.90;;;1.40;80.20;;;;;;5027070;28;20262;-74
2022/12/09 11:08:00;;;;;;;28.23;15.40;;;1.50;80.20;;;;;;5026886;28;20214;-73
2022/12/09 11:10:28;;;;;;;29.45;15.20;;;1.50;80.30;;;;;;5027652;28;20284;-73
2022/12/09 11:13:04;;;;;;;32.25;16.10;;;1.40;80.30;;;;;;5021368;28;20676;-74
2022/12/09 11:15:43;;;;;;;32.70;16.95;;;1.30;81.20;;;;;;5026552;28;20192;-73
2022/12/09 11:18:19;;;;;;;32.40;16.80;;;1.50;81.40;;;;;;5028999;28;20184;-73
2022/12/09 11:20:58;;;;;;;32.97;15.88;;;1.50;81.10;;;;;;5031747;28;20226;-72
2022/12/09 11:23:24;;;;;;;32.67;16.45;;;1.50;81.20;;;;;;5026672;28;20235;-73
2022/12/09 11:26:02;;;;;;;33.07;16.30;;;1.50;81.20;;;;;;5032223;28;20189;-73
2022/12/09 11:28:35;;;;;;;28.10;15.35;;;1.40;81.50;;;;;;5026525;28;20216;-73
2022/12/09 11:31:21;;;;;;;35.70;18.20;;;1.50;82.10;;;;;;5030412;28;20213;-74
2022/12/09 11:33:48;;;;;;;31.88;15.73;;;1.50;81.20;;;;;;5023776;28;20560;-74
2022/12/09 11:36:21;;;;;;;36.97;16.63;;;1.30;81.50;;;;;;5027850;28;20652;-73
2022/12/09 11:38:50;;;;;;;33.03;15.68;;;1.30;81.90;;;;;;5017910;28;20216;-74
2022/12/09 11:42:12;;;;;;;27.77;15.88;;;1.50;82.40;;;;;;5027241;28;20181;-73
2022/12/09 11:44:11;;;;;;;44.90;17.92;;;1.60;82.10;;;;;;5024107;28;20193;-73
2022/12/09 11:46:37;;;;;;;33.13;17.13;;;1.60;81.20;;;;;;5020757;28;20340;-73
2022/12/09 11:49:12;;;;;;;32.33;15.80;;;1.50;81.40;;;;;;5026202;28;20288;-73
2022/12/09 11:51:41;;;;;;;31.15;15.93;;;1.60;81.50;;;;;;5023249;28;20185;-73
2022/12/09 11:54:33;;;;;;;35.70;17.55;;;1.70;81.40;;;;;;5030398;28;20397;-72
2022/12/09 11:57:00;;;;;;;35.38;17.27;;;1.70;80.90;;;;;;5028867;28;20664;-72
2022/12/09 11:59:37;;;;;;;34.05;16.23;;;1.60;80.90;;;;;;5032132;28;20289;-74
2022/12/09 12:02:17;;;;;;;32.55;17.02;;;1.60;81.40;;;;;;5023727;28;20193;-73
2022/12/09 12:05:35;;;;;;;34.10;17.10;;;1.60;81.50;;;;;;5022586;28;20211;-73
2022/12/09 12:08:13;;;;;;;33.47;17.02;;;1.70;81.70;;;;;;4984322;28;20218;-73
2022/12/09 12:10:47;;;;;;;39.63;17.63;;;1.90;81.50;;;;;;4982242;28;20206;-73
2022/12/09 12:13:18;;;;;;;34.40;16.80;;;1.80;81.20;;;;;;4983581;28;20663;-73
2022/12/09 12:15:55;;;;;;;37.60;17.88;;;1.80;81.40;;;;;;4987943;28;20505;-73
2022/12/09 12:18:22;;;;;;;38.55;18.38;;;1.70;81.40;;;;;;4997551;28;20217;-73
2022/12/09 12:21:40;;;;;;;32.80;16.48;;;1.60;81.50;;;;;;4982358;28;20199;-73
2022/12/09 12:24:39;;;;;;;34.80;17.70;;;1.60;82.40;;;;;;4982571;28;20254;-73
2022/12/09 12:27:28;;;;;;;34.83;17.80;;;1.70;82.20;;;;;;4981059;28;20217;-72
2022/12/09 12:30:11;;;;;;;38.50;17.33;;;1.80;82.10;;;;;;4979260;28;20258;-73
2022/12/09 12:32:52;;;;;;;37.65;19.35;;;1.60;81.90;;;;;;4981742;28;20199;-73
2022/12/09 12:35:27;;;;;;;38.42;18.05;;;1.60;82.20;;;;;;4977798;28;20693;-72
2022/12/09 12:38:21;;;;;;;32.28;17.33;;;1.70;82.20;;;;;;4987308;28;20539;-74
2022/12/09 12:41:05;;;;;;;33.15;17.30;;;1.50;82.40;;;;;;5022993;28;20309;-74
2022/12/09 12:46:45;;;;;;;38.15;16.35;;;1.70;82.80;;;;;;5022554;28;20211;-73
2022/12/09 12:49:46;;;;;;;37.17;17.52;;;1.70;82.70;;;;;;5022518;28;20255;-72
2022/12/09 12:52:19;;;;;;;30.52;16.27;;;1.80;82.50;;;;;;5031430;28;20200;-74
2022/12/09 12:55:24;;;;;;;37.20;18.15;;;1.80;82.40;;;;;;5031749;28;20177;-73
2022/12/09 12:58:26;;;;;;;34.60;17.30;;;1.90;82.40;;;;;;4959662;28;20348;-74